createdAt,value
2019-05-02T00:03:58.608Z,11.08
2019-05-02T00:09:09.264Z,11.01
2019-05-02T00:14:13.073Z,10.96
2019-05-02T00:19:18.497Z,10.92
2019-05-02T00:24:24.083Z,10.97
2019-05-02T00:29:29.643Z,10.92
2019-05-02T00:34:35.011Z,10.85
2019-05-02T00:39:40.208Z,10.78
2019-05-02T00:44:47.037Z,10.69
2019-05-02T00:49:52.499Z,10.70
2019-05-02T00:54:58.714Z,10.71
2019-05-02T01:00:07.859Z,10.64
2019-05-02T01:05:13.803Z,10.58
2019-05-02T01:10:21.295Z,10.51
2019-05-02T01:15:26.348Z,10.46
2019-05-02T01:20:31.605Z,10.47
2019-05-02T01:25:36.833Z,10.44
2019-05-02T01:30:44.171Z,10.45
2019-05-02T01:35:51.057Z,10.34
2019-05-02T01:40:56.520Z,10.37
2019-05-02T01:46:02.192Z,10.35
2019-05-02T01:51:10.411Z,10.38
2019-05-02T01:56:14.482Z,10.33
2019-05-02T02:01:21.428Z,10.47
2019-05-02T02:06:26.692Z,10.39
2019-05-02T02:11:34.028Z,10.41
2019-05-02T02:16:40.472Z,10.50
2019-05-02T02:21:47.703Z,10.51
2019-05-02T02:26:53.045Z,10.56
2019-05-02T02:31:58.514Z,10.55
2019-05-02T02:37:05.394Z,10.60
2019-05-02T02:42:10.692Z,10.56
2019-05-02T02:47:18.815Z,10.51
2019-05-02T02:52:23.226Z,10.44
2019-05-02T02:57:28.673Z,10.38
2019-05-02T03:02:34.135Z,10.47
2019-05-02T03:07:39.608Z,10.45
2019-05-02T03:13:03.290Z,10.38
2019-05-02T03:18:08.740Z,10.34
2019-05-02T03:23:15.005Z,10.34
2019-05-02T03:28:21.182Z,10.35
2019-05-02T03:33:26.781Z,10.24
2019-05-02T03:38:35.056Z,10.32
2019-05-02T03:43:39.303Z,10.23
2019-05-02T03:48:44.655Z,10.24
2019-05-02T03:53:51.019Z,10.13
2019-05-02T03:58:58.198Z,10.08
2019-05-02T04:04:04.759Z,10.00
2019-05-02T04:09:13.304Z,10.08
2019-05-02T04:14:36.588Z,10.05
2019-05-02T04:19:28.673Z,10.05
2019-05-02T04:24:34.081Z,10.08
2019-05-02T04:29:39.628Z,9.96
2019-05-02T04:34:48.945Z,9.89
2019-05-02T04:39:53.848Z,9.91
2019-05-02T04:45:14.181Z,9.70
2019-05-02T04:50:17.540Z,9.88
2019-05-02T04:55:22.982Z,9.87
2019-05-02T05:00:29.117Z,10.05
2019-05-02T05:05:34.762Z,10.11
2019-05-02T05:10:41.465Z,10.15
2019-05-02T05:15:51.310Z,10.11
2019-05-02T05:20:54.309Z,10.05
2019-05-02T05:26:03.252Z,9.94
2019-05-02T05:31:07.669Z,10.10
2019-05-02T05:36:13.062Z,10.10
2019-05-02T05:41:22.877Z,10.08
2019-05-02T05:46:27.775Z,10.04
2019-05-02T05:51:33.543Z,10.20
2019-05-02T05:56:42.897Z,10.17
2019-05-02T06:01:47.963Z,10.13
2019-05-02T06:06:54.120Z,10.03
2019-05-02T06:12:00.487Z,10.03
2019-05-02T06:17:05.890Z,10.01
2019-05-02T06:22:11.333Z,10.06
2019-05-02T06:27:20.938Z,10.29
2019-05-02T06:32:23.547Z,10.23
2019-05-02T06:37:28.606Z,10.33
2019-05-02T06:42:34.632Z,10.22
2019-05-02T06:47:42.082Z,10.20
2019-05-02T06:52:47.892Z,10.07
2019-05-02T06:57:57.138Z,10.18
2019-05-02T07:03:00.032Z,10.20
2019-05-02T07:08:06.457Z,10.24
2019-05-02T07:13:15.164Z,10.37
2019-05-02T07:18:23.907Z,10.70
2019-05-02T07:23:29.230Z,10.83
2019-05-02T07:28:34.700Z,10.66
2019-05-02T07:33:39.944Z,10.66
2019-05-02T07:38:45.108Z,10.61
2019-05-02T07:43:52.119Z,10.77
2019-05-02T07:48:57.627Z,10.82
2019-05-02T07:54:02.923Z,10.94
2019-05-02T07:59:09.225Z,11.24
2019-05-02T08:04:14.425Z,11.24
2019-05-02T08:09:19.735Z,11.29
2019-05-02T08:14:29.167Z,11.37
2019-05-02T08:19:31.785Z,11.45
2019-05-02T08:24:37.835Z,11.46
2019-05-02T08:29:44.066Z,11.44
2019-05-02T08:34:51.995Z,11.23
2019-05-02T08:39:56.527Z,11.39
2019-05-02T08:45:03.143Z,11.16
2019-05-02T08:50:10.306Z,11.32
2019-05-02T08:55:15.479Z,11.57
2019-05-02T09:00:20.848Z,11.39
2019-05-02T09:05:26.482Z,11.43
2019-05-02T09:10:31.693Z,11.45
2019-05-02T09:15:40.391Z,11.75
2019-05-02T09:20:46.921Z,11.92
2019-05-02T09:25:51.962Z,11.90
2019-05-02T09:31:02.025Z,11.98
2019-05-02T09:36:04.240Z,11.97
2019-05-02T09:41:16.967Z,12.12
2019-05-02T09:46:16.792Z,12.39
2019-05-02T09:51:22.284Z,12.64
2019-05-02T09:56:27.857Z,12.53
2019-05-02T10:01:34.913Z,12.26
2019-05-02T10:06:42.383Z,11.95
2019-05-02T10:11:47.679Z,11.88
2019-05-02T10:16:53.185Z,11.77
2019-05-02T10:21:58.348Z,11.73
2019-05-02T10:27:08.358Z,12.07
2019-05-02T10:32:13.045Z,12.32
2019-05-02T10:37:17.446Z,12.49
2019-05-02T10:42:22.728Z,12.66
2019-05-02T10:47:27.993Z,12.54
2019-05-02T10:52:34.202Z,12.15
2019-05-02T10:57:41.942Z,11.80
2019-05-02T11:03:04.990Z,11.65
2019-05-02T11:08:12.022Z,12.07
2019-05-02T11:13:21.875Z,12.55
2019-05-02T11:18:41.995Z,12.77
2019-05-02T11:23:39.276Z,12.52
2019-05-02T11:28:44.790Z,11.91
2019-05-02T11:33:52.507Z,11.69
2019-05-02T11:39:05.357Z,11.67
2019-05-02T11:44:07.710Z,11.70
2019-05-02T11:49:13.143Z,11.70
2019-05-02T11:54:18.705Z,11.89
2019-05-02T11:59:28.073Z,12.07
2019-05-02T12:04:32.607Z,13.06
2019-05-02T12:09:37.838Z,12.78
2019-05-02T12:14:43.253Z,12.54
2019-05-02T12:19:48.889Z,12.57
2019-05-02T12:24:54.263Z,12.64
2019-05-02T12:29:59.470Z,12.71
2019-05-02T12:35:05.930Z,12.39
2019-05-02T12:40:12.285Z,12.16
2019-05-02T12:45:17.916Z,12.30
2019-05-02T12:50:23.391Z,12.25
2019-05-02T12:55:28.751Z,12.02
2019-05-02T13:00:34.043Z,12.58
2019-05-02T13:05:39.266Z,12.35
2019-05-02T13:11:02.314Z,12.21
2019-05-02T13:16:06.109Z,12.26
2019-05-02T13:21:16.821Z,12.78
2019-05-02T13:26:26.888Z,12.68
2019-05-02T13:31:42.560Z,12.28
2019-05-02T13:36:51.806Z,11.87
2019-05-02T13:41:56.979Z,11.16
2019-05-02T13:47:02.806Z,11.26
2019-05-02T13:52:08.744Z,11.66
2019-05-02T13:57:13.962Z,11.72
2019-05-02T14:02:42.838Z,11.74
2019-05-02T14:08:05.911Z,11.76
2019-05-02T14:13:12.479Z,11.69
2019-05-02T14:18:21.955Z,11.65
2019-05-02T14:23:26.679Z,12.02
2019-05-02T14:28:36.244Z,13.23
2019-05-02T14:33:42.362Z,13.73
2019-05-02T14:38:47.528Z,12.84
2019-05-02T14:43:54.114Z,12.60
2019-05-02T14:48:59.824Z,12.44
2019-05-02T14:54:08.319Z,12.28
2019-05-02T14:59:19.782Z,12.20
2019-05-02T15:04:22.978Z,12.34
2019-05-02T15:09:28.463Z,12.17
2019-05-02T15:14:35.421Z,12.09
2019-05-02T15:19:42.764Z,12.06
2019-05-02T15:24:48.086Z,12.89
2019-05-02T15:30:01.015Z,13.00
2019-05-02T15:35:23.055Z,12.68
2019-05-02T15:45:36.603Z,12.70
2019-05-02T15:50:51.661Z,12.63
2019-05-02T15:55:49.950Z,12.38
2019-05-02T16:00:56.506Z,12.28
2019-05-02T16:06:02.955Z,12.13
2019-05-02T16:11:08.817Z,12.26
2019-05-02T16:16:14.612Z,12.29
2019-05-02T16:21:29.016Z,12.49
2019-05-02T16:26:29.248Z,12.40
2019-05-02T16:31:36.470Z,12.22
2019-05-02T16:36:41.999Z,12.17
2019-05-02T16:41:49.275Z,12.16
2019-05-02T16:46:54.442Z,12.04
2019-05-02T16:52:04.955Z,11.94
2019-05-02T16:57:07.145Z,11.93
2019-05-02T17:02:12.709Z,11.87
2019-05-02T17:07:19.554Z,11.84
2019-05-02T17:12:25.120Z,11.88
2019-05-02T17:17:33.251Z,11.74
2019-05-02T17:22:37.388Z,11.73
2019-05-02T17:27:42.619Z,11.49
2019-05-02T17:32:47.903Z,11.39
2019-05-02T17:37:53.837Z,11.28
2019-05-02T17:43:02.771Z,11.20
2019-05-02T17:48:09.956Z,11.20
2019-05-02T17:53:14.002Z,11.21
2019-05-02T17:58:19.450Z,11.21
2019-05-02T18:03:31.015Z,11.21
2019-05-02T18:08:32.329Z,11.12
2019-05-02T18:13:37.772Z,11.23
2019-05-02T18:18:46.632Z,11.20
2019-05-02T18:23:51.920Z,10.97
2019-05-02T18:29:02.896Z,10.92
2019-05-02T18:34:04.168Z,10.86
2019-05-02T18:39:09.412Z,10.79
2019-05-02T18:44:17.477Z,10.79
2019-05-02T18:49:23.668Z,10.74
2019-05-02T18:54:29.052Z,10.83
2019-05-02T18:59:34.925Z,10.87
2019-05-02T19:04:42.204Z,10.84
2019-05-02T19:09:50.979Z,10.90
2019-05-02T19:14:57.553Z,10.91
2019-05-02T19:20:01.423Z,10.95
2019-05-02T19:25:06.917Z,10.84
2019-05-02T19:30:13.606Z,10.91
2019-05-02T19:35:19.039Z,10.95
2019-05-02T19:40:28.196Z,10.83
2019-05-02T19:45:33.516Z,10.69
2019-05-02T19:50:43.694Z,10.72
2019-05-02T19:55:47.450Z,10.71
2019-05-02T20:00:52.737Z,10.72
2019-05-02T20:06:02.568Z,10.60
2019-05-02T20:11:04.694Z,10.47
2019-05-02T20:16:23.035Z,10.30
2019-05-02T20:21:32.905Z,10.28
2019-05-02T20:26:38.290Z,10.30
2019-05-02T20:31:43.684Z,10.28
2019-05-02T20:36:49.327Z,10.17
2019-05-02T20:41:54.447Z,10.19
2019-05-02T20:46:59.869Z,10.19
2019-05-02T20:52:05.243Z,10.24
2019-05-02T20:57:11.978Z,10.14
2019-05-02T21:02:18.191Z,10.26
2019-05-02T21:07:25.018Z,10.26
2019-05-02T21:12:30.519Z,10.17
2019-05-02T21:17:35.927Z,10.19
2019-05-02T21:22:42.218Z,10.10
2019-05-02T21:27:47.530Z,10.08
2019-05-02T21:32:53.816Z,10.08
2019-05-02T21:37:59.080Z,10.04
2019-05-02T21:43:04.759Z,10.05
2019-05-02T21:48:10.224Z,10.05
2019-05-02T21:53:17.102Z,10.09
2019-05-02T21:58:22.495Z,10.06
2019-05-02T22:03:27.766Z,10.05
2019-05-02T22:08:33.116Z,10.03
2019-05-02T22:13:38.222Z,10.01
2019-05-02T22:18:43.836Z,9.99
2019-05-02T22:23:52.035Z,10.03
2019-05-02T22:28:57.489Z,10.10
2019-05-02T22:34:02.894Z,10.00
2019-05-02T22:39:28.134Z,9.97
2019-05-02T22:44:33.560Z,10.00
2019-05-02T22:49:38.923Z,9.96
2019-05-02T22:54:44.390Z,9.97
2019-05-02T22:59:51.515Z,10.01
2019-05-02T23:04:56.533Z,9.97
2019-05-02T23:10:02.245Z,9.91
2019-05-02T23:15:08.890Z,9.70
2019-05-02T23:20:14.524Z,9.70
2019-05-02T23:25:39.157Z,9.66
2019-05-02T23:30:44.696Z,9.66
2019-05-02T23:35:52.062Z,9.64
2019-05-02T23:40:56.889Z,9.59
2019-05-02T23:46:02.340Z,9.55
2019-05-02T23:51:07.557Z,9.50
2019-05-02T23:56:13.261Z,9.49
